OIZI  Iran Shahr  Airport

Iranshahr, Iran

Add Bookmark
ICAO OIZI
Type Airport
Status Operational
Latitude
27° 14' 9" N
27.236099
Longitude
60° 43' 12" E
60.720001
Local (GMT +4.5 ) UTC
Jul 26, 2016 08:26 pm Jul 26, 2016 15:56
Sunrise-Sunset Local UTC
Begin Civil Twilight 05:21 am 00:51
Sunrise 05:46 am 01:16
Sunset 07:20 pm 14:50
End Civil Twilight 07:45 pm 15:15
VFR
VFR
MVFR
MVFR
IFR
IFR
LIFR
LIFR
Unknown
Unavailable

Current Weather

METAR Observed IFR
OIZI 141900Z 03010KT 4000 HZ NSC 39/09 Q1001 Thu, Jul 14, 2016 @ 19:00 UTC
(1 Week, 4 Days, 20 Hours, 56 Minutes ago)
Instrument Flight Rules
Wind Visibility Conditions
030° at 10 knots (19 kph) 4,007 m
  • Haze
Temperatures Readings Precipitation
Current Temp
39°C
102°F
Dewpoint
9°C
48°F
Humidity 16%
Altimeter 29.56" Hg
Sea Level Pressure 1,001 mb
Field Elevation
591 m
1,939 ft
None Recorded
-
-

CheckWX.com is intended as a tool to help pilots better visualize weather data. It is not intended as a substitute for an official weather briefing obtained from a Flight Service Station. CheckWX.com does not meet the FAA requirements for an official pre-flight weather briefing. Therefore, it's important that pilots still call and obtain an official FSS pre-flight weather briefing.

© 2007-2016 CheckWX.com
15:56:06 UTC